Time;durP1;ratioP1;P1;durP2;ratioP2;P2;SDS_P1;SDS_P2;PMS_P1;PMS_P2;Temp;Humidity;BMP_temperature;BMP_pressure;BME280_temperature;BME280_humidity;BME280_pressure;Samples;Min_cycle;Max_cycle;Signal;HPM_P1;HPM_P2
2022/09/06 00:01:49;;;;;;;1.27;1.20;;;15.90;54.30;;;;;;604358;238;26851;-71
2022/09/06 00:04:16;;;;;;;1.25;1.25;;;15.90;53.90;;;;;;604446;237;26599;-70
2022/09/06 00:06:44;;;;;;;1.08;1.08;;;15.90;54.70;;;;;;604429;237;27223;-71
2022/09/06 00:09:11;;;;;;;1.48;1.37;;;15.90;53.40;;;;;;604372;237;26585;-69
2022/09/06 00:11:38;;;;;;;1.10;1.10;;;15.80;54.70;;;;;;604414;237;26849;-69
2022/09/06 00:14:05;;;;;;;1.00;1.00;;;15.80;54.00;;;;;;604279;237;26594;-67
2022/09/06 00:16:33;;;;;;;2.15;1.45;;;15.80;53.40;;;;;;604377;238;27171;-68
2022/09/06 00:19:00;;;;;;;1.67;1.20;;;15.70;53.90;;;;;;604297;238;26612;-69
2022/09/06 00:21:28;;;;;;;1.70;1.48;;;15.70;53.90;;;;;;606024;235;26658;-68
2022/09/06 00:23:56;;;;;;;0.98;0.98;;;15.70;53.40;;;;;;605436;236;26605;-68
2022/09/06 00:26:23;;;;;;;1.05;1.05;;;15.70;55.20;;;;;;605238;237;26820;-69
2022/09/06 00:28:50;;;;;;;1.00;1.00;;;15.70;54.60;;;;;;605167;236;26600;-69
2022/09/06 00:31:18;;;;;;;1.20;1.20;;;15.60;55.90;;;;;;604989;237;26919;-69
2022/09/06 00:33:45;;;;;;;0.98;0.98;;;15.50;55.30;;;;;;604875;237;26629;-69
2022/09/06 00:36:14;;;;;;;1.23;1.15;;;15.40;55.60;;;;;;604868;238;26646;-69
2022/09/06 00:38:42;;;;;;;0.98;0.98;;;15.40;54.50;;;;;;604708;238;26611;-69
2022/09/06 00:41:10;;;;;;;5.95;1.37;;;15.40;54.80;;;;;;604711;237;26614;-69
2022/09/06 00:43:38;;;;;;;1.20;1.15;;;15.40;56.50;;;;;;604691;237;26591;-69
2022/09/06 00:46:06;;;;;;;1.37;1.27;;;15.30;55.60;;;;;;604674;237;26595;-69
2022/09/06 00:48:34;;;;;;;1.20;1.15;;;15.30;55.40;;;;;;604629;237;26561;-69
2022/09/06 00:51:02;;;;;;;0.95;0.95;;;15.30;56.10;;;;;;604545;235;26620;-70
2022/09/06 00:53:29;;;;;;;1.27;1.17;;;15.30;56.10;;;;;;604667;238;26646;-70
2022/09/06 00:55:57;;;;;;;1.00;1.00;;;15.30;57.40;;;;;;604598;237;26621;-69
2022/09/06 00:58:24;;;;;;;1.30;1.20;;;15.30;55.90;;;;;;604432;238;27263;-69
2022/09/06 01:00:51;;;;;;;1.00;1.00;;;15.20;54.40;;;;;;604311;238;26605;-69
2022/09/06 01:03:18;;;;;;;0.98;0.98;;;15.20;54.50;;;;;;604357;238;26824;-69
2022/09/06 01:05:55;;;;;;;1.77;0.93;;;15.10;57.10;;;;;;604331;236;26578;-68
2022/09/06 01:08:57;;;;;;;0.90;0.90;;;15.10;55.50;;;;;;604141;235;26578;-69
2022/09/06 01:11:32;;;;;;;1.17;1.17;;;15.00;55.50;;;;;;604187;238;26605;-68
2022/09/06 01:14:13;;;;;;;2.70;1.10;;;15.00;55.60;;;;;;604415;235;26648;-69
2022/09/06 01:16:43;;;;;;;0.93;0.93;;;15.00;56.80;;;;;;604345;237;26597;-69
2022/09/06 01:19:16;;;;;;;1.20;1.10;;;15.00;55.20;;;;;;604318;237;26812;-69
2022/09/06 01:21:46;;;;;;;0.93;0.93;;;14.90;57.30;;;;;;602958;238;26602;-69
2022/09/06 01:24:48;;;;;;;1.48;1.20;;;15.00;57.10;;;;;;604138;238;26593;-68
2022/09/06 01:27:35;;;;;;;1.05;1.05;;;15.00;56.90;;;;;;593497;238;27371;-69
2022/09/06 01:30:05;;;;;;;1.15;1.05;;;14.90;58.80;;;;;;599523;238;26594;-69
2022/09/06 01:32:35;;;;;;;1.20;1.10;;;14.90;58.80;;;;;;605512;235;26853;-68
2022/09/06 01:35:21;;;;;;;0.90;0.90;;;14.90;56.40;;;;;;605346;237;26655;-68
2022/09/06 01:37:47;;;;;;;0.93;0.93;;;14.90;58.20;;;;;;603476;237;26606;-68
2022/09/06 01:40:14;;;;;;;1.35;0.80;;;15.00;59.00;;;;;;605131;237;26599;-70
2022/09/06 01:42:41;;;;;;;0.80;0.80;;;14.90;56.20;;;;;;604937;237;26907;-68
2022/09/06 01:45:08;;;;;;;0.90;0.90;;;15.00;55.30;;;;;;604982;237;26638;-68
2022/09/06 01:47:42;;;;;;;1.60;1.00;;;15.00;56.10;;;;;;604798;238;26649;-68
2022/09/06 01:50:26;;;;;;;1.20;1.00;;;15.00;56.40;;;;;;604738;237;26823;-68
2022/09/06 01:53:02;;;;;;;0.82;0.82;;;15.00;57.50;;;;;;595041;237;26661;-68
2022/09/06 01:55:35;;;;;;;1.87;0.90;;;14.90;57.30;;;;;;604655;237;26589;-68
2022/09/06 01:58:20;;;;;;;0.80;0.80;;;14.90;57.10;;;;;;604167;238;26811;-69
2022/09/06 02:00:48;;;;;;;0.90;0.90;;;14.90;55.60;;;;;;603816;235;26583;-68
2022/09/06 02:03:33;;;;;;;0.98;0.98;;;14.90;56.90;;;;;;604286;238;26795;-68
2022/09/06 02:06:02;;;;;;;1.40;0.95;;;14.90;55.60;;;;;;604386;238;26868;-68
2022/09/06 02:08:32;;;;;;;0.90;0.90;;;14.90;57.20;;;;;;604298;235;26905;-69
2022/09/06 02:11:00;;;;;;;0.95;0.90;;;14.90;57.20;;;;;;604295;237;26921;-68
2022/09/06 02:13:27;;;;;;;1.20;1.20;;;14.90;55.90;;;;;;604353;237;26590;-69
2022/09/06 02:15:55;;;;;;;1.00;1.00;;;14.90;58.80;;;;;;604093;238;26578;-68
2022/09/06 02:18:23;;;;;;;2.03;1.00;;;14.80;55.50;;;;;;604337;237;26846;-69
2022/09/06 02:20:51;;;;;;;1.27;1.00;;;14.90;55.70;;;;;;604284;238;26593;-68
2022/09/06 02:23:18;;;;;;;1.20;1.10;;;14.90;55.70;;;;;;604254;238;26606;-68
2022/09/06 02:25:48;;;;;;;0.80;0.80;;;14.90;56.10;;;;;;604358;236;26574;-68
2022/09/06 02:28:15;;;;;;;1.15;1.10;;;14.90;57.60;;;;;;604164;238;26826;-68
2022/09/06 02:30:42;;;;;;;0.98;0.80;;;14.80;58.20;;;;;;604297;238;26599;-69
2022/09/06 02:33:09;;;;;;;0.70;0.70;;;14.80;57.50;;;;;;604300;235;26865;-68
2022/09/06 02:35:42;;;;;;;0.60;0.60;;;14.70;57.90;;;;;;604326;237;26601;-68
2022/09/06 02:38:09;;;;;;;1.00;1.00;;;14.70;58.20;;;;;;604400;237;26579;-69
2022/09/06 02:40:37;;;;;;;1.00;1.00;;;14.80;56.90;;;;;;604437;237;26586;-68
2022/09/06 02:43:04;;;;;;;0.98;0.88;;;14.70;58.40;;;;;;605186;235;26804;-68
2022/09/06 02:45:32;;;;;;;0.70;0.70;;;14.70;58.60;;;;;;605812;237;26585;-68
2022/09/06 02:47:59;;;;;;;1.33;1.23;;;14.70;57.30;;;;;;605403;236;26919;-70
2022/09/06 02:50:26;;;;;;;0.70;0.70;;;14.60;57.70;;;;;;605231;237;26583;-71
2022/09/06 02:53:08;;;;;;;0.80;0.80;;;14.60;59.20;;;;;;605019;237;26962;-71
2022/09/06 02:55:35;;;;;;;0.85;0.85;;;14.60;60.60;;;;;;604921;237;26650;-72
2022/09/06 02:58:02;;;;;;;1.10;1.10;;;14.60;58.00;;;;;;604969;237;26696;-72
2022/09/06 03:00:29;;;;;;;1.10;1.10;;;14.70;57.80;;;;;;604906;237;26670;-72
2022/09/06 03:02:56;;;;;;;0.95;0.95;;;14.70;58.20;;;;;;604650;237;26843;-72
2022/09/06 03:05:24;;;;;;;0.82;0.82;;;14.70;59.30;;;;;;604634;237;26585;-72
2022/09/06 03:07:51;;;;;;;0.90;0.90;;;14.70;60.80;;;;;;604591;238;26961;-72
2022/09/06 03:10:18;;;;;;;0.88;0.88;;;14.80;58.70;;;;;;604551;238;26582;-72
2022/09/06 03:12:45;;;;;;;0.90;0.90;;;14.70;60.30;;;;;;604618;238;26856;-72
2022/09/06 03:15:12;;;;;;;0.88;0.82;;;14.70;60.60;;;;;;604591;237;26598;-72
2022/09/06 03:17:40;;;;;;;0.90;0.90;;;14.60;60.90;;;;;;604633;237;27259;-72
2022/09/06 03:20:09;;;;;;;1.12;1.00;;;14.50;60.70;;;;;;604328;238;26599;-72
2022/09/06 03:22:36;;;;;;;1.08;1.08;;;14.50;60.80;;;;;;604297;238;26629;-72
2022/09/06 03:25:03;;;;;;;0.90;0.90;;;14.60;64.00;;;;;;604094;237;26848;-72
2022/09/06 03:27:31;;;;;;;0.90;0.90;;;14.50;62.10;;;;;;604187;237;26854;-72
2022/09/06 03:29:58;;;;;;;0.85;0.85;;;14.50;60.30;;;;;;604113;238;26592;-72
2022/09/06 03:32:25;;;;;;;1.12;0.93;;;14.50;60.40;;;;;;604109;238;26617;-72
2022/09/06 03:34:52;;;;;;;2.30;0.90;;;14.50;59.50;;;;;;604334;237;26589;-72
2022/09/06 03:37:19;;;;;;;1.10;1.10;;;14.50;64.00;;;;;;604341;237;27263;-72
2022/09/06 03:39:47;;;;;;;0.80;0.80;;;14.40;60.80;;;;;;604318;237;26599;-72
2022/09/06 03:42:15;;;;;;;0.90;0.90;;;14.50;60.90;;;;;;604399;237;26863;-72
2022/09/06 03:44:42;;;;;;;0.90;0.90;;;14.50;61.30;;;;;;604362;238;26890;-72
2022/09/06 03:47:09;;;;;;;0.77;0.77;;;14.50;61.90;;;;;;604378;237;26811;-72
2022/09/06 03:49:36;;;;;;;0.88;0.88;;;14.50;62.60;;;;;;604340;235;26820;-72
2022/09/06 03:52:04;;;;;;;0.88;0.82;;;14.40;61.70;;;;;;606659;235;26612;-72
2022/09/06 03:54:31;;;;;;;1.00;0.90;;;14.50;59.40;;;;;;612823;232;26623;-73
2022/09/06 03:56:58;;;;;;;0.80;0.80;;;14.60;60.60;;;;;;613645;233;26870;-72
2022/09/06 03:59:25;;;;;;;1.15;0.90;;;14.50;62.50;;;;;;612275;234;26826;-71
2022/09/06 04:01:52;;;;;;;0.80;0.80;;;14.50;60.90;;;;;;605212;236;26909;-71
2022/09/06 04:04:20;;;;;;;1.02;0.93;;;14.60;61.40;;;;;;605000;237;26649;-71
2022/09/06 04:06:47;;;;;;;1.42;0.93;;;14.60;62.90;;;;;;604886;238;27312;-72
2022/09/06 04:09:14;;;;;;;1.35;1.12;;;14.60;62.80;;;;;;604942;237;26859;-72
2022/09/06 04:11:42;;;;;;;1.00;1.00;;;14.60;61.30;;;;;;604911;238;26898;-72
2022/09/06 04:14:09;;;;;;;0.60;0.60;;;14.60;59.80;;;;;;604687;237;26571;-72
2022/09/06 04:16:36;;;;;;;0.85;0.85;;;14.60;61.50;;;;;;604666;238;26904;-72
2022/09/06 04:19:03;;;;;;;2.15;1.10;;;14.50;61.60;;;;;;604670;237;26596;-72
2022/09/06 04:21:31;;;;;;;0.80;0.80;;;14.50;61.50;;;;;;604699;238;26601;-72
2022/09/06 04:23:59;;;;;;;0.90;0.90;;;14.50;65.40;;;;;;604677;237;26590;-72
2022/09/06 04:26:26;;;;;;;0.80;0.80;;;14.40;61.90;;;;;;604662;238;26579;-72
2022/09/06 04:28:54;;;;;;;0.85;0.85;;;14.40;62.00;;;;;;604670;232;26615;-72
2022/09/06 04:31:21;;;;;;;0.80;0.80;;;14.40;64.80;;;;;;604404;237;26882;-72
2022/09/06 04:33:49;;;;;;;0.88;0.88;;;14.30;65.10;;;;;;604382;237;26586;-72
2022/09/06 04:36:16;;;;;;;0.80;0.80;;;14.40;65.20;;;;;;604355;237;26823;-72
2022/09/06 04:38:44;;;;;;;1.35;1.00;;;14.40;62.70;;;;;;604350;237;26589;-72
2022/09/06 04:41:11;;;;;;;1.60;0.95;;;14.40;62.60;;;;;;604346;238;26595;-72
2022/09/06 04:43:39;;;;;;;0.90;0.90;;;14.60;62.10;;;;;;604355;238;26582;-72
2022/09/06 04:46:23;;;;;;;0.93;0.93;;;14.40;61.90;;;;;;604377;237;26590;-72
2022/09/06 04:48:49;;;;;;;0.90;0.90;;;14.40;64.50;;;;;;604267;238;26594;-72
2022/09/06 04:51:16;;;;;;;0.70;0.70;;;14.40;64.00;;;;;;604811;237;26838;-72
2022/09/06 04:53:43;;;;;;;1.10;1.00;;;14.40;65.90;;;;;;604882;237;26554;-72
2022/09/06 04:56:12;;;;;;;1.00;1.00;;;14.30;66.10;;;;;;604582;237;26579;-72
2022/09/06 04:58:40;;;;;;;0.77;0.77;;;14.30;62.60;;;;;;604418;237;26881;-72
2022/09/06 05:01:07;;;;;;;0.82;0.82;;;14.30;62.40;;;;;;604388;238;26955;-71
2022/09/06 05:03:35;;;;;;;1.20;1.10;;;14.30;64.10;;;;;;604372;238;26582;-72
2022/09/06 05:06:07;;;;;;;0.90;0.90;;;14.30;65.40;;;;;;604959;235;26597;-72
2022/09/06 05:08:41;;;;;;;0.88;0.88;;;14.30;65.50;;;;;;605750;236;26589;-72
2022/09/06 05:11:09;;;;;;;0.80;0.80;;;14.40;67.00;;;;;;605346;237;26687;-72
2022/09/06 05:13:36;;;;;;;1.40;0.70;;;14.40;66.60;;;;;;605224;236;26596;-72
2022/09/06 05:16:05;;;;;;;1.20;1.10;;;14.50;64.70;;;;;;604990;237;26626;-72
2022/09/06 05:18:33;;;;;;;1.05;0.90;;;14.50;63.10;;;;;;604884;237;26639;-72
2022/09/06 05:21:00;;;;;;;0.90;0.80;;;14.40;62.90;;;;;;604894;237;26922;-72
2022/09/06 05:23:27;;;;;;;1.42;0.82;;;14.50;66.00;;;;;;604925;238;26629;-71
2022/09/06 05:25:54;;;;;;;1.35;1.15;;;14.50;65.90;;;;;;604631;237;27208;-71
2022/09/06 05:28:22;;;;;;;0.82;0.82;;;14.60;65.90;;;;;;604530;237;26612;-72
2022/09/06 05:30:50;;;;;;;0.73;0.73;;;14.60;68.20;;;;;;604486;238;26600;-71
2022/09/06 05:33:18;;;;;;;0.90;0.90;;;14.60;64.20;;;;;;604484;237;26601;-72
2022/09/06 05:35:47;;;;;;;0.80;0.80;;;14.70;65.00;;;;;;604600;237;26613;-71
2022/09/06 05:38:14;;;;;;;0.95;0.95;;;14.70;65.00;;;;;;604492;237;26670;-72
2022/09/06 05:40:42;;;;;;;0.95;0.90;;;14.80;64.70;;;;;;604701;238;26601;-72
2022/09/06 05:43:10;;;;;;;1.60;0.90;;;14.80;64.60;;;;;;604428;238;26602;-72
2022/09/06 05:45:37;;;;;;;2.55;0.90;;;14.90;64.30;;;;;;604373;237;26581;-72
2022/09/06 05:48:04;;;;;;;0.70;0.70;;;15.00;64.40;;;;;;604359;238;26569;-72
2022/09/06 05:50:32;;;;;;;0.82;0.82;;;15.20;61.80;;;;;;604369;237;26593;-72
2022/09/06 05:53:00;;;;;;;0.80;0.80;;;15.30;64.30;;;;;;604366;238;26617;-72
2022/09/06 05:55:28;;;;;;;0.90;0.90;;;15.30;66.10;;;;;;604381;237;26582;-72
2022/09/06 05:57:55;;;;;;;1.25;0.80;;;15.30;66.00;;;;;;604452;237;26636;-71
2022/09/06 06:00:22;;;;;;;0.80;0.80;;;15.40;64.10;;;;;;604363;237;26586;-71
2022/09/06 06:02:50;;;;;;;0.98;0.95;;;15.40;65.10;;;;;;604326;237;27261;-71
2022/09/06 06:05:17;;;;;;;0.70;0.70;;;15.50;63.20;;;;;;604412;237;26595;-71
2022/09/06 06:07:44;;;;;;;0.90;0.90;;;15.60;60.50;;;;;;604381;237;26816;-71
2022/09/06 06:10:11;;;;;;;1.00;1.00;;;15.60;62.30;;;;;;604375;237;26583;-70
2022/09/06 06:12:38;;;;;;;0.80;0.80;;;15.60;63.50;;;;;;604351;237;27285;-71
2022/09/06 06:15:06;;;;;;;0.77;0.75;;;15.60;61.30;;;;;;604372;238;26591;-71
2022/09/06 06:17:34;;;;;;;0.80;0.80;;;15.70;62.30;;;;;;604896;236;26618;-71
2022/09/06 06:20:01;;;;;;;0.70;0.70;;;15.70;62.40;;;;;;605750;236;26578;-71
2022/09/06 06:22:29;;;;;;;0.82;0.82;;;15.80;59.60;;;;;;605400;237;26663;-71
2022/09/06 06:24:57;;;;;;;0.82;0.82;;;16.00;60.50;;;;;;605265;236;26589;-71
2022/09/06 06:27:24;;;;;;;0.80;0.80;;;16.00;60.40;;;;;;605035;237;26633;-71
2022/09/06 06:29:51;;;;;;;0.70;0.70;;;16.00;61.80;;;;;;604988;237;26638;-71
2022/09/06 06:32:18;;;;;;;1.33;1.10;;;16.10;60.20;;;;;;604957;237;26898;-71
2022/09/06 06:34:45;;;;;;;1.52;0.80;;;16.20;59.90;;;;;;604959;237;26841;-70
2022/09/06 06:37:13;;;;;;;0.60;0.60;;;16.40;61.40;;;;;;604625;237;26881;-70
2022/09/06 06:39:40;;;;;;;0.80;0.80;;;16.60;62.60;;;;;;604647;237;26583;-70
2022/09/06 06:42:08;;;;;;;1.08;0.73;;;16.70;58.90;;;;;;604659;237;26853;-70
2022/09/06 06:44:34;;;;;;;1.02;0.90;;;16.80;59.80;;;;;;604689;237;26586;-70
2022/09/06 06:47:02;;;;;;;0.90;0.90;;;17.00;58.50;;;;;;604687;237;26842;-71
2022/09/06 06:49:29;;;;;;;1.17;1.10;;;17.00;58.50;;;;;;604695;237;26816;-70
2022/09/06 06:51:57;;;;;;;0.90;0.90;;;17.20;57.40;;;;;;604671;238;26605;-70
2022/09/06 06:54:25;;;;;;;0.90;0.90;;;17.20;57.30;;;;;;604425;237;26574;-70
2022/09/06 06:56:53;;;;;;;0.90;0.90;;;17.40;58.00;;;;;;604343;237;26582;-70
2022/09/06 06:59:21;;;;;;;1.10;1.00;;;17.50;57.60;;;;;;604368;237;26611;-70
2022/09/06 07:01:49;;;;;;;1.15;1.15;;;17.50;57.60;;;;;;604382;237;26869;-70
2022/09/06 07:04:16;;;;;;;1.00;1.00;;;17.60;59.00;;;;;;604375;238;26895;-70
2022/09/06 07:06:50;;;;;;;1.20;1.10;;;17.70;57.70;;;;;;604412;238;26882;-70
2022/09/06 07:09:17;;;;;;;2.00;1.30;;;17.80;57.20;;;;;;604468;238;26923;-70
2022/09/06 07:11:45;;;;;;;0.88;0.88;;;17.90;57.30;;;;;;604394;238;26610;-69
2022/09/06 07:14:13;;;;;;;1.05;1.05;;;17.90;58.20;;;;;;604390;237;26593;-69
2022/09/06 07:16:40;;;;;;;1.00;1.00;;;17.90;57.90;;;;;;604420;237;26857;-69
2022/09/06 07:19:07;;;;;;;1.17;0.88;;;17.90;59.10;;;;;;604386;237;26582;-69
2022/09/06 07:21:34;;;;;;;1.27;1.17;;;18.00;58.50;;;;;;604330;237;26622;-70
2022/09/06 07:24:02;;;;;;;1.37;1.27;;;18.00;57.10;;;;;;604375;238;26556;-70
2022/09/06 07:26:29;;;;;;;1.10;1.10;;;18.10;59.50;;;;;;604361;238;26579;-70
2022/09/06 07:28:57;;;;;;;1.10;1.05;;;18.10;57.20;;;;;;604755;235;26856;-70
2022/09/06 07:31:24;;;;;;;2.30;1.00;;;18.00;58.50;;;;;;605800;236;26827;-70
2022/09/06 07:33:51;;;;;;;1.23;1.10;;;18.10;58.10;;;;;;605446;236;26844;-70
2022/09/06 07:36:18;;;;;;;1.40;1.20;;;18.10;57.10;;;;;;605239;237;26569;-70
2022/09/06 07:38:48;;;;;;;1.02;1.02;;;18.10;58.30;;;;;;605053;237;27292;-70
2022/09/06 07:41:16;;;;;;;1.37;1.30;;;18.20;59.60;;;;;;604889;238;26895;-70
2022/09/06 07:43:42;;;;;;;1.10;1.10;;;18.20;58.30;;;;;;604933;237;26626;-70
2022/09/06 07:46:12;;;;;;;1.25;1.25;;;18.20;58.60;;;;;;604900;238;26863;-70
2022/09/06 07:48:39;;;;;;;1.20;1.20;;;18.20;58.20;;;;;;604470;237;26598;-73
2022/09/06 07:51:07;;;;;;;1.00;1.00;;;18.60;57.80;;;;;;607603;235;26827;-70
2022/09/06 07:53:34;;;;;;;1.20;1.10;;;18.50;57.30;;;;;;606304;234;26875;-70
2022/09/06 07:56:01;;;;;;;2.05;1.12;;;18.60;59.00;;;;;;605697;235;26566;-70
2022/09/06 07:58:29;;;;;;;1.65;1.30;;;18.60;57.70;;;;;;612528;235;26606;-70
2022/09/06 08:01:15;;;;;;;1.05;1.05;;;18.70;57.60;;;;;;612417;234;26830;-70
2022/09/06 08:03:43;;;;;;;1.35;1.25;;;18.70;58.20;;;;;;611274;235;26603;-70
2022/09/06 08:06:10;;;;;;;1.05;1.00;;;18.70;57.80;;;;;;612315;234;26615;-70
2022/09/06 08:08:38;;;;;;;1.35;1.25;;;18.70;58.00;;;;;;609761;234;26642;-70
2022/09/06 08:11:06;;;;;;;1.20;1.10;;;18.70;58.00;;;;;;604317;237;26615;-70
2022/09/06 08:13:34;;;;;;;1.23;1.12;;;18.80;58.80;;;;;;604349;237;26853;-70
2022/09/06 08:16:02;;;;;;;1.08;1.08;;;18.80;58.00;;;;;;604339;238;26589;-71
2022/09/06 08:18:29;;;;;;;1.27;1.20;;;19.00;58.70;;;;;;604253;233;26605;-70
2022/09/06 08:20:57;;;;;;;1.40;1.30;;;19.00;57.60;;;;;;604332;237;26825;-70
2022/09/06 08:23:24;;;;;;;1.20;1.20;;;19.20;57.80;;;;;;603625;235;26589;-70
2022/09/06 08:25:56;;;;;;;1.30;1.20;;;19.30;57.80;;;;;;604296;237;26889;-70
2022/09/06 08:28:23;;;;;;;1.20;1.20;;;19.30;57.70;;;;;;604102;238;26606;-70
2022/09/06 08:30:50;;;;;;;1.27;1.20;;;19.30;58.10;;;;;;604123;238;26824;-70
2022/09/06 08:33:20;;;;;;;1.20;1.20;;;19.40;58.00;;;;;;604156;237;26585;-70
2022/09/06 08:35:46;;;;;;;1.37;1.27;;;19.40;58.80;;;;;;604257;235;26651;-70
2022/09/06 08:38:13;;;;;;;1.00;1.00;;;19.50;58.10;;;;;;603687;238;26794;-71
2022/09/06 08:40:40;;;;;;;1.30;1.20;;;19.60;58.00;;;;;;604797;236;26581;-70
2022/09/06 08:43:08;;;;;;;1.02;1.02;;;19.60;58.10;;;;;;605799;237;26918;-70
2022/09/06 08:45:35;;;;;;;1.25;1.25;;;19.60;58.00;;;;;;607577;235;26984;-70
2022/09/06 08:48:03;;;;;;;1.45;1.35;;;19.60;57.70;;;;;;609671;234;26644;-70
2022/09/06 08:50:30;;;;;;;1.30;1.30;;;19.70;58.70;;;;;;609420;234;26642;-71
2022/09/06 08:52:59;;;;;;;2.37;1.45;;;19.60;58.20;;;;;;609013;234;26877;-70
2022/09/06 08:55:31;;;;;;;1.37;1.33;;;19.60;57.30;;;;;;608590;235;26640;-70
2022/09/06 08:58:03;;;;;;;1.17;1.17;;;19.70;58.10;;;;;;608675;235;26713;-70
2022/09/06 09:00:30;;;;;;;1.50;1.40;;;19.70;58.10;;;;;;608345;235;26627;-70
2022/09/06 09:03:14;;;;;;;2.15;1.50;;;20.00;58.90;;;;;;608780;235;26666;-71
2022/09/06 09:05:41;;;;;;;1.60;1.50;;;19.90;58.80;;;;;;608907;235;26645;-71
2022/09/06 09:08:12;;;;;;;1.40;1.30;;;20.30;57.50;;;;;;608609;235;26642;-72
2022/09/06 09:10:40;;;;;;;1.77;1.67;;;20.20;57.30;;;;;;609688;234;26863;-71
2022/09/06 09:13:07;;;;;;;1.80;1.70;;;20.30;57.70;;;;;;609655;235;26846;-70
2022/09/06 09:15:35;;;;;;;1.48;1.40;;;20.50;57.30;;;;;;608802;234;26651;-71
2022/09/06 09:18:03;;;;;;;1.77;1.58;;;20.80;58.60;;;;;;609448;234;26658;-71
2022/09/06 09:20:31;;;;;;;1.37;1.37;;;20.90;56.50;;;;;;608586;234;26879;-71
2022/09/06 09:22:58;;;;;;;1.73;1.60;;;20.90;56.60;;;;;;609036;234;26859;-71
2022/09/06 09:25:25;;;;;;;1.42;1.33;;;21.00;56.20;;;;;;612175;231;26624;-71
2022/09/06 09:27:56;;;;;;;1.80;1.70;;;21.20;56.20;;;;;;611580;235;26854;-71
2022/09/06 09:30:20;;;;;;;1.48;1.37;;;21.40;56.60;;;;;;611845;235;26980;-71
2022/09/06 09:32:48;;;;;;;1.55;1.45;;;21.40;55.50;;;;;;606408;234;26590;-71
2022/09/06 09:35:17;;;;;;;1.70;1.60;;;21.40;55.90;;;;;;604947;235;26845;-71
2022/09/06 09:37:45;;;;;;;1.85;1.55;;;21.60;55.20;;;;;;607334;235;26638;-71
2022/09/06 09:40:13;;;;;;;1.25;1.25;;;21.50;55.10;;;;;;604341;237;26797;-71
2022/09/06 09:42:40;;;;;;;1.75;1.65;;;21.70;55.50;;;;;;608625;236;26601;-71
2022/09/06 09:45:33;;;;;;;1.58;1.48;;;21.80;55.20;;;;;;610092;235;26584;-71
2022/09/06 09:48:13;;;;;;;2.45;1.58;;;21.90;55.60;;;;;;612274;234;26843;-71
2022/09/06 09:50:40;;;;;;;1.30;1.20;;;21.80;55.20;;;;;;612168;231;26652;-71
2022/09/06 09:53:10;;;;;;;1.40;1.30;;;21.90;54.50;;;;;;612929;232;27318;-71
2022/09/06 09:55:37;;;;;;;1.35;1.25;;;21.90;54.80;;;;;;610830;235;26596;-71
2022/09/06 09:58:05;;;;;;;1.45;1.35;;;22.10;54.40;;;;;;610569;235;26588;-71
2022/09/06 10:00:38;;;;;;;1.30;1.30;;;22.10;55.50;;;;;;610433;235;26571;-71
2022/09/06 10:03:13;;;;;;;1.30;1.20;;;22.10;54.20;;;;;;610455;235;26608;-71
2022/09/06 10:05:40;;;;;;;1.10;1.10;;;22.10;54.20;;;;;;610766;235;26553;-71
2022/09/06 10:08:09;;;;;;;1.10;1.10;;;22.20;53.90;;;;;;610142;235;26644;-71
2022/09/06 10:10:38;;;;;;;1.70;1.60;;;22.20;53.90;;;;;;604954;235;26639;-71
2022/09/06 10:13:20;;;;;;;1.87;1.40;;;22.30;54.40;;;;;;604623;238;26590;-71
2022/09/06 10:15:48;;;;;;;1.25;1.20;;;22.40;54.40;;;;;;604612;237;26606;-71
2022/09/06 10:18:29;;;;;;;1.40;1.30;;;22.60;54.20;;;;;;604624;237;26603;-71
2022/09/06 10:21:02;;;;;;;1.60;1.50;;;22.70;55.20;;;;;;604600;237;26599;-71
2022/09/06 10:23:50;;;;;;;1.27;1.20;;;22.70;54.80;;;;;;604588;237;26591;-71
2022/09/06 10:26:18;;;;;;;1.30;1.20;;;22.80;53.40;;;;;;603342;238;26641;-71
2022/09/06 10:28:46;;;;;;;1.40;1.30;;;22.80;53.40;;;;;;604301;238;26614;-70
2022/09/06 10:31:25;;;;;;;1.45;1.37;;;22.90;53.90;;;;;;610825;235;26614;-69
2022/09/06 10:33:58;;;;;;;1.25;1.20;;;23.10;53.90;;;;;;612610;235;26613;-69
2022/09/06 10:36:25;;;;;;;1.67;1.58;;;23.30;53.40;;;;;;612472;235;26602;-69
2022/09/06 10:38:55;;;;;;;1.75;1.42;;;23.40;53.30;;;;;;612538;235;26837;-69
2022/09/06 10:41:38;;;;;;;2.50;1.50;;;23.50;52.80;;;;;;612417;234;26655;-70
2022/09/06 10:44:25;;;;;;;1.87;1.40;;;23.20;53.10;;;;;;612145;234;26685;-70
2022/09/06 10:46:53;;;;;;;1.60;1.50;;;23.10;53.00;;;;;;607439;235;26882;-70
2022/09/06 10:49:20;;;;;;;1.60;1.50;;;23.10;53.40;;;;;;611799;235;26652;-70
2022/09/06 10:51:48;;;;;;;1.67;1.58;;;23.00;53.50;;;;;;612185;234;26995;-70
2022/09/06 10:54:21;;;;;;;1.95;1.70;;;23.00;53.00;;;;;;611999;235;26652;-70
2022/09/06 10:57:10;;;;;;;1.73;1.62;;;23.10;53.10;;;;;;612313;235;26584;-70
2022/09/06 10:59:39;;;;;;;1.52;1.50;;;23.00;53.10;;;;;;610529;235;26883;-70
2022/09/06 11:02:41;;;;;;;1.73;1.62;;;23.10;53.30;;;;;;612343;234;26854;-70
2022/09/06 11:05:10;;;;;;;1.73;1.62;;;23.00;52.80;;;;;;592549;234;26661;-71
2022/09/06 11:07:42;;;;;;;1.50;1.40;;;23.00;53.10;;;;;;613399;233;26584;-71
2022/09/06 11:10:09;;;;;;;1.62;1.52;;;23.10;52.50;;;;;;613052;230;27060;-71
2022/09/06 11:12:49;;;;;;;1.58;1.48;;;23.30;53.10;;;;;;612659;234;26623;-71
2022/09/06 11:15:16;;;;;;;1.92;1.83;;;23.20;52.90;;;;;;609233;234;26638;-71
2022/09/06 11:17:47;;;;;;;2.47;1.50;;;23.40;53.20;;;;;;608363;235;26630;-71
2022/09/06 11:20:35;;;;;;;1.80;1.70;;;23.40;53.20;;;;;;612976;235;26619;-69
2022/09/06 11:23:15;;;;;;;2.58;1.55;;;23.40;52.50;;;;;;608359;235;26602;-70
2022/09/06 11:25:46;;;;;;;1.98;1.70;;;23.40;52.50;;;;;;612862;235;26579;-70
2022/09/06 11:28:13;;;;;;;1.77;1.67;;;23.30;52.30;;;;;;612626;235;26575;-69
2022/09/06 11:30:49;;;;;;;2.35;1.70;;;23.10;52.40;;;;;;608225;235;26931;-70
2022/09/06 11:33:21;;;;;;;1.80;1.70;;;23.30;53.10;;;;;;604678;237;26935;-70
2022/09/06 11:35:49;;;;;;;1.80;1.70;;;23.30;52.80;;;;;;604624;238;26616;-70
2022/09/06 11:38:20;;;;;;;1.85;1.67;;;23.30;52.40;;;;;;605143;235;26552;-70
2022/09/06 11:40:48;;;;;;;1.77;1.67;;;23.30;52.40;;;;;;610070;235;26605;-70
2022/09/06 11:43:16;;;;;;;1.98;1.60;;;23.20;52.00;;;;;;604058;238;26587;-70
2022/09/06 11:45:48;;;;;;;1.92;1.60;;;23.20;52.50;;;;;;604344;235;26782;-70
2022/09/06 11:48:33;;;;;;;1.67;1.58;;;23.20;52.60;;;;;;604354;238;26812;-70
2022/09/06 11:51:02;;;;;;;1.77;1.67;;;23.20;52.30;;;;;;604193;238;26785;-70
2022/09/06 11:53:31;;;;;;;1.77;1.67;;;23.30;53.20;;;;;;604299;238;26591;-71
2022/09/06 11:56:16;;;;;;;1.65;1.55;;;23.30;53.10;;;;;;604190;238;26810;-69
2022/09/06 11:58:44;;;;;;;2.30;1.67;;;23.30;54.00;;;;;;603728;238;26604;-67
2022/09/06 12:01:34;;;;;;;1.90;1.80;;;23.40;52.50;;;;;;604136;238;26601;-67
2022/09/06 12:04:02;;;;;;;1.98;1.50;;;23.30;52.90;;;;;;603791;238;27242;-67
2022/09/06 12:07:00;;;;;;;2.10;1.90;;;23.30;52.90;;;;;;604447;237;26838;-66
2022/09/06 12:09:37;;;;;;;2.25;1.60;;;23.40;52.30;;;;;;602326;238;27249;-67
2022/09/06 12:12:05;;;;;;;2.00;1.83;;;23.50;52.10;;;;;;604289;237;26618;-67
2022/09/06 12:14:34;;;;;;;1.70;1.60;;;23.50;52.50;;;;;;604340;238;26595;-66
2022/09/06 12:17:17;;;;;;;1.67;1.58;;;23.50;52.40;;;;;;605837;235;26974;-66
2022/09/06 12:19:50;;;;;;;1.40;1.40;;;23.50;52.80;;;;;;594354;237;26644;-66
2022/09/06 12:22:42;;;;;;;1.98;1.87;;;23.40;52.70;;;;;;605052;237;26624;-66
2022/09/06 12:25:26;;;;;;;1.40;1.30;;;23.50;53.40;;;;;;603652;237;26651;-66
2022/09/06 12:27:56;;;;;;;1.70;1.60;;;23.50;53.40;;;;;;602944;238;26693;-66
2022/09/06 12:30:44;;;;;;;1.80;1.60;;;23.60;52.90;;;;;;608098;235;26879;-67
2022/09/06 12:33:16;;;;;;;1.70;1.60;;;23.40;52.60;;;;;;612608;235;26894;-66
2022/09/06 12:35:43;;;;;;;20.55;5.57;;;23.40;52.40;;;;;;612057;235;26841;-68
2022/09/06 12:38:12;;;;;;;8.30;3.17;;;23.50;53.10;;;;;;612367;234;26596;-68
2022/09/06 12:40:40;;;;;;;49.63;10.52;;;23.70;53.20;;;;;;611383;234;26606;-67
2022/09/06 12:43:07;;;;;;;32.35;8.98;;;23.80;52.90;;;;;;609532;236;26689;-67
2022/09/06 12:45:36;;;;;;;13.38;4.45;;;23.80;53.80;;;;;;609785;235;26715;-68
2022/09/06 12:48:07;;;;;;;1.92;1.73;;;24.00;53.40;;;;;;609527;236;26695;-69
2022/09/06 12:50:34;;;;;;;2.30;1.87;;;24.10;52.80;;;;;;609305;236;26671;-68
2022/09/06 12:53:02;;;;;;;3.08;1.48;;;24.10;52.80;;;;;;604010;232;26629;-70
2022/09/06 12:55:33;;;;;;;3.47;1.80;;;24.10;52.70;;;;;;603930;237;27275;-69
2022/09/06 12:58:00;;;;;;;1.40;1.40;;;24.20;52.90;;;;;;604689;237;27104;-69
2022/09/06 13:00:36;;;;;;;1.60;1.50;;;24.10;52.90;;;;;;604611;237;26870;-69